Time;durP1;ratioP1;P1;durP2;ratioP2;P2;SDS_P1;SDS_P2;PMS_P1;PMS_P2;Temp;Humidity;BMP_temperature;BMP_pressure;BME280_temperature;BME280_humidity;BME280_pressure;Samples;Min_cycle;Max_cycle;Signal;HPM_P1;HPM_P2
2023/05/15 00:00:29;;;;;;;14.50;13.70;;;;;;;;;;5026449;28;20025;-63
2023/05/15 00:02:55;;;;;;;13.18;12.57;;;;;;;;;;5022428;28;20046;-63
2023/05/15 00:05:21;;;;;;;14.20;13.40;;;;;;;;;;5018899;28;20033;-61
2023/05/15 00:07:46;;;;;;;13.63;12.93;;;;;;;;;;5029110;28;20108;-61
2023/05/15 00:10:11;;;;;;;13.00;12.35;;;;;;;;;;5027501;28;20565;-62
2023/05/15 00:12:37;;;;;;;13.50;12.80;;;;;;;;;;5022093;28;20125;-63
2023/05/15 00:15:02;;;;;;;13.45;12.75;;;;;;;;;;5021818;28;20380;-62
2023/05/15 00:17:28;;;;;;;13.10;12.40;;;;;;;;;;5031048;28;20088;-62
2023/05/15 00:19:57;;;;;;;13.18;12.48;;;;;;;;;;5016391;28;20033;-64
2023/05/15 00:22:23;;;;;;;13.13;12.43;;;;;;;;;;5020419;28;20029;-63
2023/05/15 00:24:49;;;;;;;13.20;12.50;;;;;;;;;;5026290;28;20377;-64
2023/05/15 00:27:14;;;;;;;13.25;12.55;;;;;;;;;;5025394;28;20526;-63
2023/05/15 00:29:39;;;;;;;13.15;12.50;;;;;;;;;;5036617;28;20028;-63
2023/05/15 00:32:06;;;;;;;13.18;12.50;;;;;;;;;;5019387;28;20445;-62
2023/05/15 00:34:31;;;;;;;12.63;12.02;;;;;;;;;;5052654;28;20070;-63
2023/05/15 00:36:56;;;;;;;12.85;12.25;;;;;;;;;;5024197;28;20025;-62
2023/05/15 00:39:21;;;;;;;12.98;12.35;;;;;;;;;;5021494;28;20025;-62
2023/05/15 00:41:48;;;;;;;12.38;11.77;;;;;;;;;;5021658;28;20065;-62
2023/05/15 00:44:15;;;;;;;13.60;12.88;;;;;;;;;;5025186;28;20021;-61
2023/05/15 00:46:40;;;;;;;12.75;12.15;;;;;;;;;;5028224;28;20073;-61
2023/05/15 00:49:12;;;;;;;13.25;12.55;;;;;;;;;;5021384;28;20068;-63
2023/05/15 00:51:39;;;;;;;14.60;13.75;;;;;;;;;;5018660;28;20021;-62
2023/05/15 00:54:04;;;;;;;13.40;12.70;;;;;;;;;;5023703;28;20021;-62
2023/05/15 00:56:30;;;;;;;14.13;13.32;;;;;;;;;;5028052;28;20021;-63
2023/05/15 00:58:58;;;;;;;13.07;12.38;;;;;;;;;;5028950;28;20017;-62
2023/05/15 01:01:24;;;;;;;13.68;12.95;;;;;;;;;;5031651;28;20056;-62
2023/05/15 01:03:49;;;;;;;13.23;12.52;;;;;;;;;;5026368;28;20138;-61
2023/05/15 01:06:15;;;;;;;13.05;12.35;;;;;;;;;;5033109;28;20022;-62
2023/05/15 01:08:45;;;;;;;13.05;12.35;;;;;;;;;;5021103;28;20057;-62
2023/05/15 01:11:11;;;;;;;12.63;12.02;;;;;;;;;;5026848;28;20053;-63
2023/05/15 01:13:36;;;;;;;13.02;12.32;;;;;;;;;;5029217;28;20032;-62
2023/05/15 01:16:02;;;;;;;13.70;12.95;;;;;;;;;;5032888;28;20100;-62
2023/05/15 01:18:31;;;;;;;12.80;12.20;;;;;;;;;;5027877;28;20022;-62
2023/05/15 01:21:06;;;;;;;12.88;12.25;;;;;;;;;;5029786;28;20033;-63
2023/05/15 01:23:51;;;;;;;13.50;12.80;;;;;;;;;;5024351;28;20022;-62
2023/05/15 01:26:35;;;;;;;13.15;12.45;;;;;;;;;;5023752;28;20171;-62
2023/05/15 01:29:03;;;;;;;13.20;12.50;;;;;;;;;;5032243;28;20431;-62
2023/05/15 01:31:31;;;;;;;13.50;12.80;;;;;;;;;;5020362;28;20064;-61
2023/05/15 01:33:58;;;;;;;13.25;12.55;;;;;;;;;;5031439;28;20021;-62
2023/05/15 01:36:29;;;;;;;13.52;12.82;;;;;;;;;;5023754;28;20076;-63
2023/05/15 01:38:59;;;;;;;12.90;12.30;;;;;;;;;;5025792;28;20028;-63
2023/05/15 01:41:30;;;;;;;12.90;12.30;;;;;;;;;;5029629;28;20036;-63
2023/05/15 01:43:58;;;;;;;13.52;12.82;;;;;;;;;;5036566;28;20033;-62
2023/05/15 01:46:25;;;;;;;13.38;12.68;;;;;;;;;;5030240;28;20049;-63
2023/05/15 01:48:51;;;;;;;12.80;12.20;;;;;;;;;;5030163;28;20024;-63
2023/05/15 01:51:17;;;;;;;13.15;12.45;;;;;;;;;;5034874;28;20548;-63
2023/05/15 01:53:42;;;;;;;12.50;11.90;;;;;;;;;;5033973;28;20156;-63
2023/05/15 01:56:08;;;;;;;12.85;12.25;;;;;;;;;;5037759;28;20070;-62
2023/05/15 01:58:35;;;;;;;12.88;12.27;;;;;;;;;;5022221;28;20037;-62
2023/05/15 02:01:01;;;;;;;13.20;12.50;;;;;;;;;;5020857;28;20168;-63
2023/05/15 02:03:26;;;;;;;12.82;12.23;;;;;;;;;;5026312;28;20132;-62
2023/05/15 02:05:52;;;;;;;13.43;12.73;;;;;;;;;;5031579;28;20030;-63
2023/05/15 02:08:19;;;;;;;13.80;13.07;;;;;;;;;;5039580;28;20032;-63
2023/05/15 02:10:44;;;;;;;13.57;12.88;;;;;;;;;;5025019;28;20101;-63
2023/05/15 02:13:11;;;;;;;13.80;13.05;;;;;;;;;;5023646;28;20101;-62
2023/05/15 02:15:36;;;;;;;13.48;12.77;;;;;;;;;;5037929;28;20383;-61
2023/05/15 02:18:02;;;;;;;14.13;13.32;;;;;;;;;;5027467;28;20124;-62
2023/05/15 02:20:27;;;;;;;13.32;12.63;;;;;;;;;;5024377;28;20109;-61
2023/05/15 02:22:52;;;;;;;13.02;12.43;;;;;;;;;;5028699;28;20035;-63
2023/05/15 02:25:19;;;;;;;12.95;12.35;;;;;;;;;;5031587;28;20025;-62
2023/05/15 02:27:54;;;;;;;13.05;12.40;;;;;;;;;;5027936;28;20056;-62
2023/05/15 02:30:30;;;;;;;13.20;12.50;;;;;;;;;;5032090;28;20036;-63
2023/05/15 02:33:10;;;;;;;12.73;12.13;;;;;;;;;;5022820;28;20037;-62
2023/05/15 02:35:54;;;;;;;13.35;12.65;;;;;;;;;;5030761;28;20496;-63
2023/05/15 02:38:32;;;;;;;12.70;12.10;;;;;;;;;;5027998;28;20069;-62
2023/05/15 02:40:59;;;;;;;13.20;12.50;;;;;;;;;;5028298;28;20063;-62
2023/05/15 02:43:25;;;;;;;12.93;12.27;;;;;;;;;;5035691;28;20488;-62
2023/05/15 02:45:52;;;;;;;12.70;12.10;;;;;;;;;;5031425;28;20029;-63
2023/05/15 02:48:17;;;;;;;13.70;12.98;;;;;;;;;;5020740;28;20025;-63
2023/05/15 02:50:43;;;;;;;13.73;12.98;;;;;;;;;;5028212;28;20017;-63
2023/05/15 02:53:09;;;;;;;13.20;12.50;;;;;;;;;;5035018;28;20092;-61
2023/05/15 02:55:34;;;;;;;13.55;12.85;;;;;;;;;;5030647;28;20085;-61
2023/05/15 02:58:00;;;;;;;13.30;12.60;;;;;;;;;;5026650;28;20072;-62
2023/05/15 03:00:25;;;;;;;13.52;12.82;;;;;;;;;;5025732;28;20445;-62
2023/05/15 03:02:50;;;;;;;12.73;12.13;;;;;;;;;;5018394;28;20046;-62
2023/05/15 03:05:16;;;;;;;14.10;13.30;;;;;;;;;;5059836;28;20116;-61
2023/05/15 03:07:41;;;;;;;13.45;12.75;;;;;;;;;;5018785;28;20029;-63
2023/05/15 03:10:07;;;;;;;13.25;12.55;;;;;;;;;;5032294;28;20052;-63
2023/05/15 03:12:32;;;;;;;12.88;12.18;;;;;;;;;;5030246;28;20014;-62
2023/05/15 03:14:57;;;;;;;13.93;13.13;;;;;;;;;;5052056;28;20021;-62
2023/05/15 03:17:23;;;;;;;13.40;12.70;;;;;;;;;;5026797;28;20508;-62
2023/05/15 03:19:48;;;;;;;13.38;12.68;;;;;;;;;;5026736;28;20033;-62
2023/05/15 03:22:13;;;;;;;13.48;12.77;;;;;;;;;;5028755;28;20036;-62
2023/05/15 03:24:39;;;;;;;14.07;13.27;;;;;;;;;;5057686;28;20164;-62
2023/05/15 03:27:04;;;;;;;13.23;12.52;;;;;;;;;;5030652;28;20108;-63
2023/05/15 03:29:30;;;;;;;12.85;12.25;;;;;;;;;;5030403;28;20029;-62
2023/05/15 03:31:55;;;;;;;13.18;12.48;;;;;;;;;;5027301;28;20022;-63
2023/05/15 03:34:20;;;;;;;12.82;12.20;;;;;;;;;;5031327;28;20026;-63
2023/05/15 03:36:46;;;;;;;13.27;12.57;;;;;;;;;;5029152;28;20461;-63
2023/05/15 03:39:11;;;;;;;13.25;12.55;;;;;;;;;;5033241;28;20025;-63
2023/05/15 03:41:36;;;;;;;13.25;12.55;;;;;;;;;;5032832;28;20444;-63
2023/05/15 03:44:01;;;;;;;13.32;12.63;;;;;;;;;;5033116;28;20017;-63
2023/05/15 03:46:27;;;;;;;13.32;12.63;;;;;;;;;;5029127;28;20546;-63
2023/05/15 03:48:53;;;;;;;12.88;12.25;;;;;;;;;;5026596;28;20040;-63
2023/05/15 03:51:19;;;;;;;12.55;11.95;;;;;;;;;;5025152;28;20021;-63
2023/05/15 03:53:44;;;;;;;13.63;12.93;;;;;;;;;;5032104;28;20037;-63
2023/05/15 03:56:09;;;;;;;12.95;12.25;;;;;;;;;;5022310;28;20046;-62
2023/05/15 03:58:35;;;;;;;12.63;12.02;;;;;;;;;;5028700;28;20026;-62
2023/05/15 04:01:06;;;;;;;12.88;12.20;;;;;;;;;;5029893;28;20033;-62
2023/05/15 04:03:31;;;;;;;14.35;13.55;;;;;;;;;;5026306;28;20124;-64
2023/05/15 04:05:57;;;;;;;13.05;12.35;;;;;;;;;;5020511;28;20112;-63
2023/05/15 04:08:22;;;;;;;13.43;12.73;;;;;;;;;;5022429;28;20052;-63
2023/05/15 04:10:47;;;;;;;13.25;12.55;;;;;;;;;;5031507;28;20100;-62
2023/05/15 04:13:13;;;;;;;13.00;12.30;;;;;;;;;;5031164;28;20041;-62
2023/05/15 04:15:39;;;;;;;12.93;12.23;;;;;;;;;;5033647;28;20017;-62
2023/05/15 04:18:05;;;;;;;13.32;12.63;;;;;;;;;;5023855;28;20017;-62
2023/05/15 04:20:30;;;;;;;13.25;12.55;;;;;;;;;;5025169;28;20481;-63
2023/05/15 04:22:56;;;;;;;13.90;13.15;;;;;;;;;;5023693;28;20387;-62
2023/05/15 04:25:23;;;;;;;12.63;12.02;;;;;;;;;;5024271;28;20469;-63
2023/05/15 04:27:48;;;;;;;14.82;14.00;;;;;;;;;;5025456;28;20381;-63
2023/05/15 04:30:13;;;;;;;14.02;13.25;;;;;;;;;;5025297;28;20033;-62
2023/05/15 04:32:39;;;;;;;13.35;12.65;;;;;;;;;;5025360;28;20025;-64
2023/05/15 04:35:05;;;;;;;14.35;13.55;;;;;;;;;;5031607;28;20424;-59
2023/05/15 04:37:30;;;;;;;13.35;12.65;;;;;;;;;;5024939;28;20113;-61
2023/05/15 04:39:56;;;;;;;13.95;13.18;;;;;;;;;;5024619;28;20532;-60
2023/05/15 04:42:21;;;;;;;13.32;12.63;;;;;;;;;;5060348;28;20040;-62
2023/05/15 04:44:46;;;;;;;13.40;12.70;;;;;;;;;;5024427;28;20071;-61
2023/05/15 04:47:12;;;;;;;13.80;13.10;;;;;;;;;;5029094;28;20097;-61
2023/05/15 04:49:38;;;;;;;14.32;13.52;;;;;;;;;;5024853;28;20096;-61
2023/05/15 04:52:03;;;;;;;13.80;13.10;;;;;;;;;;5024376;28;20033;-60
2023/05/15 04:54:28;;;;;;;12.93;12.32;;;;;;;;;;5027379;28;20021;-63
2023/05/15 04:56:54;;;;;;;14.23;13.45;;;;;;;;;;5023586;28;20029;-60
2023/05/15 04:59:19;;;;;;;13.13;12.50;;;;;;;;;;5019339;28;20025;-60
2023/05/15 05:01:44;;;;;;;13.98;13.27;;;;;;;;;;5025460;28;20121;-60
2023/05/15 05:04:10;;;;;;;13.65;12.95;;;;;;;;;;5024079;28;20037;-60
2023/05/15 05:06:35;;;;;;;13.05;12.45;;;;;;;;;;5024870;28;20104;-59
2023/05/15 05:09:00;;;;;;;13.85;13.15;;;;;;;;;;5022916;28;20381;-61
2023/05/15 05:11:26;;;;;;;12.93;12.32;;;;;;;;;;5020447;28;20013;-61
2023/05/15 05:13:51;;;;;;;13.10;12.50;;;;;;;;;;5019370;28;20390;-60
2023/05/15 05:16:16;;;;;;;12.98;12.38;;;;;;;;;;5021787;28;20021;-61
2023/05/15 05:18:41;;;;;;;12.57;11.98;;;;;;;;;;5023607;28;20029;-61
2023/05/15 05:21:07;;;;;;;12.53;11.93;;;;;;;;;;5029780;28;20021;-60
2023/05/15 05:23:32;;;;;;;12.65;12.05;;;;;;;;;;5034386;28;20617;-60
2023/05/15 05:25:58;;;;;;;12.90;12.30;;;;;;;;;;5030237;28;20021;-59
2023/05/15 05:28:23;;;;;;;12.60;12.00;;;;;;;;;;5032240;28;20113;-60
2023/05/15 05:30:49;;;;;;;12.93;12.32;;;;;;;;;;5028687;28;20025;-60
2023/05/15 05:33:14;;;;;;;12.48;11.88;;;;;;;;;;5030320;28;20087;-59
2023/05/15 05:35:40;;;;;;;12.82;12.23;;;;;;;;;;5024616;28;20017;-61
2023/05/15 05:38:05;;;;;;;13.32;12.73;;;;;;;;;;5027023;28;20017;-61
2023/05/15 05:40:30;;;;;;;13.20;12.60;;;;;;;;;;5027348;28;20079;-61
2023/05/15 05:42:59;;;;;;;12.15;11.63;;;;;;;;;;5030201;28;20829;-65
2023/05/15 05:45:24;;;;;;;13.95;13.25;;;;;;;;;;5027801;28;20037;-63
2023/05/15 05:47:50;;;;;;;14.80;14.10;;;;;;;;;;5018090;28;20021;-64
2023/05/15 05:50:15;;;;;;;13.40;12.80;;;;;;;;;;5018067;28;20052;-63
2023/05/15 05:52:40;;;;;;;13.55;12.95;;;;;;;;;;5023382;28;20030;-67
2023/05/15 05:55:06;;;;;;;13.20;12.60;;;;;;;;;;5027826;28;20024;-65
2023/05/15 05:57:31;;;;;;;13.23;12.63;;;;;;;;;;5025414;28;20033;-62
2023/05/15 05:59:57;;;;;;;12.70;12.10;;;;;;;;;;5028625;28;20044;-65
2023/05/15 06:02:22;;;;;;;13.27;12.68;;;;;;;;;;5035660;28;20057;-66
2023/05/15 06:04:47;;;;;;;13.10;12.50;;;;;;;;;;5038344;28;20817;-67
2023/05/15 06:07:13;;;;;;;13.48;12.88;;;;;;;;;;5035161;28;20036;-68
2023/05/15 06:09:38;;;;;;;13.13;12.52;;;;;;;;;;5034865;28;20083;-66
2023/05/15 06:12:04;;;;;;;13.15;12.55;;;;;;;;;;5031828;28;20022;-64
2023/05/15 06:14:29;;;;;;;13.32;12.73;;;;;;;;;;5029995;28;20092;-65
2023/05/15 06:16:55;;;;;;;13.15;12.55;;;;;;;;;;5037456;28;20037;-64
2023/05/15 06:19:20;;;;;;;13.47;12.87;;;;;;;;;;5034892;28;20033;-65
2023/05/15 06:21:46;;;;;;;13.32;12.73;;;;;;;;;;5028429;28;20438;-64
2023/05/15 06:24:11;;;;;;;13.30;12.70;;;;;;;;;;5033677;28;20025;-65
2023/05/15 06:26:37;;;;;;;13.32;12.73;;;;;;;;;;5029611;28;20406;-66
2023/05/15 06:29:02;;;;;;;13.10;12.50;;;;;;;;;;5033554;28;20334;-67
2023/05/15 06:31:27;;;;;;;14.20;13.50;;;;;;;;;;5028532;28;20025;-66
2023/05/15 06:33:53;;;;;;;13.55;12.95;;;;;;;;;;5031007;28;20274;-67
2023/05/15 06:36:18;;;;;;;13.50;12.90;;;;;;;;;;5030734;28;20052;-64
2023/05/15 06:38:43;;;;;;;13.27;12.68;;;;;;;;;;5028321;28;20021;-65
2023/05/15 06:41:09;;;;;;;13.30;12.70;;;;;;;;;;5025045;28;20417;-67
2023/05/15 06:43:34;;;;;;;14.73;14.03;;;;;;;;;;5027712;28;20037;-64
2023/05/15 06:46:00;;;;;;;13.35;12.75;;;;;;;;;;5030647;28;20274;-65
2023/05/15 06:48:26;;;;;;;12.88;12.27;;;;;;;;;;5026358;28;20038;-65
2023/05/15 06:50:51;;;;;;;13.27;12.67;;;;;;;;;;5027984;28;20025;-65
2023/05/15 06:53:17;;;;;;;13.32;12.73;;;;;;;;;;5031709;28;20338;-69
2023/05/15 06:55:42;;;;;;;13.90;13.20;;;;;;;;;;5028893;28;20159;-64
2023/05/15 06:58:08;;;;;;;13.80;13.10;;;;;;;;;;5028698;28;20112;-66
2023/05/15 07:00:33;;;;;;;13.65;13.05;;;;;;;;;;5024327;28;20270;-64
2023/05/15 07:02:58;;;;;;;12.85;12.25;;;;;;;;;;5028570;28;20505;-64
2023/05/15 07:05:24;;;;;;;13.15;12.55;;;;;;;;;;5022856;28;20028;-64
2023/05/15 07:07:49;;;;;;;13.20;12.60;;;;;;;;;;5029088;28;20034;-65
2023/05/15 07:10:14;;;;;;;12.57;11.98;;;;;;;;;;5022607;28;20049;-64
2023/05/15 07:12:39;;;;;;;12.55;11.95;;;;;;;;;;5023717;28;20052;-66
2023/05/15 07:15:05;;;;;;;12.77;12.18;;;;;;;;;;5027622;28;20035;-66
2023/05/15 07:17:31;;;;;;;13.45;12.85;;;;;;;;;;5025824;28;20093;-66
2023/05/15 07:19:56;;;;;;;13.57;12.98;;;;;;;;;;5030727;28;20511;-65
2023/05/15 07:22:21;;;;;;;13.63;13.02;;;;;;;;;;5027144;28;20109;-64
2023/05/15 07:24:48;;;;;;;13.15;12.55;;;;;;;;;;5036614;28;20044;-63
2023/05/15 07:27:13;;;;;;;13.30;12.70;;;;;;;;;;5035735;28;20511;-64
2023/05/15 07:29:38;;;;;;;13.23;12.63;;;;;;;;;;5028691;28;20033;-64
2023/05/15 07:32:04;;;;;;;13.20;12.60;;;;;;;;;;5025160;28;20496;-65
2023/05/15 07:34:29;;;;;;;13.45;12.85;;;;;;;;;;5022514;28;20026;-64
2023/05/15 07:36:54;;;;;;;12.57;11.97;;;;;;;;;;5027233;28;20164;-64
2023/05/15 07:39:20;;;;;;;13.43;12.82;;;;;;;;;;5028023;28;20021;-65
2023/05/15 07:41:46;;;;;;;13.90;13.20;;;;;;;;;;5022554;28;20025;-65
2023/05/15 07:44:11;;;;;;;13.88;13.18;;;;;;;;;;5025660;28;20308;-66
2023/05/15 07:46:37;;;;;;;14.05;13.35;;;;;;;;;;5025678;28;20029;-64
2023/05/15 07:49:03;;;;;;;14.32;13.63;;;;;;;;;;5023754;28;20048;-65
2023/05/15 07:51:28;;;;;;;14.20;13.50;;;;;;;;;;5025982;28;20029;-67
2023/05/15 07:53:53;;;;;;;14.15;13.45;;;;;;;;;;5026437;28;20304;-67
2023/05/15 07:56:19;;;;;;;14.45;13.68;;;;;;;;;;5026940;28;20029;-67
2023/05/15 07:58:44;;;;;;;14.45;13.65;;;;;;;;;;5027102;28;20052;-67
2023/05/15 08:01:09;;;;;;;14.20;13.50;;;;;;;;;;5026355;28;20485;-68
2023/05/15 08:03:34;;;;;;;14.10;13.40;;;;;;;;;;5025046;28;20041;-68
2023/05/15 08:06:00;;;;;;;13.95;13.25;;;;;;;;;;5023855;28;20025;-67
2023/05/15 08:08:25;;;;;;;13.55;12.88;;;;;;;;;;5024947;28;20576;-65
2023/05/15 08:10:51;;;;;;;13.77;13.07;;;;;;;;;;5027384;28;20022;-69
2023/05/15 08:13:16;;;;;;;14.20;13.48;;;;;;;;;;5023635;28;20029;-69
2023/05/15 08:15:41;;;;;;;12.93;12.32;;;;;;;;;;5025978;28;20017;-70
2023/05/15 08:18:08;;;;;;;13.13;12.50;;;;;;;;;;5024285;28;20104;-70
2023/05/15 08:20:34;;;;;;;13.65;12.95;;;;;;;;;;5025875;28;20060;-69
2023/05/15 08:22:59;;;;;;;12.70;12.10;;;;;;;;;;5029318;28;20061;-70
2023/05/15 08:25:25;;;;;;;12.73;12.13;;;;;;;;;;5029874;28;20037;-69
2023/05/15 08:27:50;;;;;;;12.90;12.30;;;;;;;;;;5038743;28;20029;-69
2023/05/15 08:30:15;;;;;;;13.23;12.55;;;;;;;;;;5034235;28;20032;-69
2023/05/15 08:32:42;;;;;;;12.90;12.30;;;;;;;;;;5030016;28;20017;-70
2023/05/15 08:35:07;;;;;;;12.80;12.20;;;;;;;;;;5027614;28;20013;-71
2023/05/15 08:37:33;;;;;;;12.90;12.30;;;;;;;;;;5033138;28;20029;-70
2023/05/15 08:39:58;;;;;;;12.88;12.27;;;;;;;;;;5040738;28;20021;-70
2023/05/15 08:42:27;;;;;;;12.93;12.32;;;;;;;;;;5037209;28;20119;-70
2023/05/15 08:44:54;;;;;;;13.80;13.10;;;;;;;;;;5042521;28;20362;-69
2023/05/15 08:47:20;;;;;;;12.93;12.32;;;;;;;;;;5036601;28;20469;-70
2023/05/15 08:50:04;;;;;;;13.70;13.00;;;;;;;;;;5039462;28;20158;-69
2023/05/15 08:52:30;;;;;;;12.27;11.68;;;;;;;;;;5032846;28;20025;-69
2023/05/15 08:54:56;;;;;;;12.82;12.23;;;;;;;;;;5042953;28;20029;-70
2023/05/15 08:57:22;;;;;;;12.77;12.18;;;;;;;;;;5033119;28;20020;-70
2023/05/15 08:59:48;;;;;;;12.52;11.93;;;;;;;;;;5046459;28;20025;-69
2023/05/15 09:02:14;;;;;;;12.65;12.05;;;;;;;;;;5030725;28;20421;-70
2023/05/15 09:04:40;;;;;;;12.80;12.20;;;;;;;;;;5041517;28;20032;-70
2023/05/15 09:07:05;;;;;;;12.43;11.82;;;;;;;;;;5041869;28;20021;-70
2023/05/15 09:09:32;;;;;;;13.10;12.50;;;;;;;;;;5031712;28;20017;-70
2023/05/15 09:11:58;;;;;;;12.63;12.02;;;;;;;;;;5045093;28;20088;-71
2023/05/15 09:14:23;;;;;;;12.23;11.63;;;;;;;;;;5046883;28;20013;-70
2023/05/15 09:16:51;;;;;;;12.45;11.85;;;;;;;;;;5044391;28;20391;-70
2023/05/15 09:19:17;;;;;;;12.38;11.77;;;;;;;;;;5043684;28;20024;-70
2023/05/15 09:21:43;;;;;;;13.02;12.35;;;;;;;;;;5034389;28;20104;-69
2023/05/15 09:24:16;;;;;;;12.73;12.13;;;;;;;;;;5031718;28;20031;-70
2023/05/15 09:26:42;;;;;;;12.65;12.05;;;;;;;;;;5030448;28;20073;-70
2023/05/15 09:29:07;;;;;;;12.98;12.32;;;;;;;;;;5037844;28;20059;-69
2023/05/15 09:31:33;;;;;;;12.98;12.30;;;;;;;;;;5028311;28;20500;-70
2023/05/15 09:34:00;;;;;;;12.75;12.15;;;;;;;;;;5028239;28;20097;-70
2023/05/15 09:36:25;;;;;;;13.32;12.63;;;;;;;;;;5034245;28;20022;-70
2023/05/15 09:38:56;;;;;;;13.52;12.82;;;;;;;;;;5033679;28;20374;-70
2023/05/15 09:41:27;;;;;;;13.10;12.45;;;;;;;;;;5032354;28;20029;-70
2023/05/15 09:43:55;;;;;;;12.90;12.30;;;;;;;;;;5034295;28;20067;-70
2023/05/15 09:46:21;;;;;;;12.52;11.93;;;;;;;;;;5043470;28;20013;-70
2023/05/15 09:48:46;;;;;;;12.25;11.65;;;;;;;;;;5044864;28;20018;-71
2023/05/15 09:51:16;;;;;;;12.13;11.52;;;;;;;;;;5044451;28;20021;-69
2023/05/15 09:53:52;;;;;;;12.70;12.10;;;;;;;;;;5034253;28;20048;-70
2023/05/15 09:56:17;;;;;;;12.32;11.73;;;;;;;;;;5033650;28;20103;-71
2023/05/15 09:58:55;;;;;;;13.50;12.80;;;;;;;;;;5040557;28;20559;-70
2023/05/15 10:01:24;;;;;;;13.15;12.52;;;;;;;;;;5040734;28;20057;-69
2023/05/15 10:04:05;;;;;;;12.15;11.55;;;;;;;;;;5042482;28;20030;-70
2023/05/15 10:06:34;;;;;;;13.90;13.20;;;;;;;;;;5038438;28;20448;-70
2023/05/15 10:09:00;;;;;;;13.15;12.45;;;;;;;;;;5022334;28;20171;-70
2023/05/15 10:11:26;;;;;;;12.65;12.05;;;;;;;;;;5031417;28;20389;-70
2023/05/15 10:13:51;;;;;;;12.68;12.07;;;;;;;;;;5033899;28;20017;-70
2023/05/15 10:16:19;;;;;;;12.85;12.25;;;;;;;;;;5036953;28;20528;-69
2023/05/15 10:18:44;;;;;;;12.50;11.90;;;;;;;;;;5047104;28;20100;-70
2023/05/15 10:21:11;;;;;;;12.85;12.25;;;;;;;;;;5045523;28;20060;-70
2023/05/15 10:23:37;;;;;;;13.10;12.45;;;;;;;;;;5044121;28;20025;-70
2023/05/15 10:26:05;;;;;;;12.30;11.70;;;;;;;;;;5033939;28;20482;-70
2023/05/15 10:28:31;;;;;;;12.60;12.00;;;;;;;;;;5036637;28;20036;-69
2023/05/15 10:30:58;;;;;;;12.65;12.05;;;;;;;;;;5036974;28;20400;-70
2023/05/15 10:33:25;;;;;;;12.75;12.15;;;;;;;;;;5037053;28;20013;-70
2023/05/15 10:35:51;;;;;;;12.85;12.25;;;;;;;;;;5022962;28;20101;-70
2023/05/15 10:38:18;;;;;;;12.25;11.65;;;;;;;;;;5034484;28;20028;-70
2023/05/15 10:40:43;;;;;;;12.60;12.00;;;;;;;;;;5037566;28;20076;-69
2023/05/15 10:43:10;;;;;;;12.93;12.32;;;;;;;;;;5038454;28;20049;-71
2023/05/15 10:45:36;;;;;;;12.80;12.20;;;;;;;;;;5038140;28;20073;-70
2023/05/15 10:48:02;;;;;;;12.52;11.93;;;;;;;;;;5041687;28;20064;-70
2023/05/15 10:50:27;;;;;;;12.40;11.80;;;;;;;;;;5044605;28;20095;-69
2023/05/15 10:52:54;;;;;;;12.27;11.68;;;;;;;;;;5051956;28;20096;-71
2023/05/15 10:55:21;;;;;;;12.82;12.20;;;;;;;;;;5048579;28;20010;-70
2023/05/15 10:57:46;;;;;;;12.10;11.50;;;;;;;;;;5038369;28;20022;-70
2023/05/15 11:00:20;;;;;;;12.60;12.00;;;;;;;;;;5028765;28;20047;-70
2023/05/15 11:02:46;;;;;;;;;;;;;;;;;;5027799;28;20501;-69
2023/05/15 11:05:12;;;;;;;12.30;11.70;;;;;;;;;;5039284;28;19954;-69
2023/05/15 11:07:38;;;;;;;11.82;11.30;;;;;;;;;;5027121;28;20048;-70
2023/05/15 11:10:23;;;;;;;13.32;12.65;;;;;;;;;;5032580;28;20473;-71
2023/05/15 11:12:58;;;;;;;12.13;11.55;;;;;;;;;;5032333;28;20026;-69
2023/05/15 11:15:24;;;;;;;12.82;12.23;;;;;;;;;;5033178;28;20122;-71
2023/05/15 11:18:15;;;;;;;11.90;11.40;;;;;;;;;;5032737;28;20101;-69
2023/05/15 11:20:42;;;;;;;12.48;11.88;;;;;;;;;;5022755;28;20032;-71
2023/05/15 11:23:07;;;;;;;12.93;12.32;;;;;;;;;;5021433;28;20018;-70
2023/05/15 11:25:35;;;;;;;12.45;11.85;;;;;;;;;;5032803;28;20013;-70
2023/05/15 11:28:01;;;;;;;12.90;12.30;;;;;;;;;;5033131;28;20025;-70
2023/05/15 11:30:35;;;;;;;13.57;12.88;;;;;;;;;;5038610;28;20051;-70
2023/05/15 11:33:09;;;;;;;12.45;11.85;;;;;;;;;;5032029;28;20013;-70
2023/05/15 11:35:40;;;;;;;12.93;12.32;;;;;;;;;;5035550;28;20017;-70
2023/05/15 11:38:09;;;;;;;12.65;12.05;;;;;;;;;;5034150;28;20028;-70
2023/05/15 11:40:45;;;;;;;12.60;12.00;;;;;;;;;;5030489;28;20039;-70
2023/05/15 11:43:18;;;;;;;12.77;12.18;;;;;;;;;;5036311;28;20029;-69
2023/05/15 11:45:51;;;;;;;12.90;12.30;;;;;;;;;;5035517;28;20049;-70
2023/05/15 11:48:18;;;;;;;12.82;12.23;;;;;;;;;;5045154;28;20495;-69
2023/05/15 11:50:44;;;;;;;12.95;12.35;;;;;;;;;;5033624;28;20014;-69
2023/05/15 11:53:10;;;;;;;13.43;12.73;;;;;;;;;;5041471;28;20040;-70
2023/05/15 11:55:36;;;;;;;12.82;12.23;;;;;;;;;;5039223;28;20417;-70
2023/05/15 11:58:03;;;;;;;11.98;11.40;;;;;;;;;;5032462;28;20020;-70
2023/05/15 12:00:28;;;;;;;12.50;11.90;;;;;;;;;;5030689;28;20092;-69
2023/05/15 12:02:54;;;;;;;12.13;11.52;;;;;;;;;;5033283;28;20508;-70
2023/05/15 12:05:19;;;;;;;11.57;11.07;;;;;;;;;;5034856;28;20021;-70
2023/05/15 12:07:45;;;;;;;12.75;12.15;;;;;;;;;;5046979;28;20056;-71
2023/05/15 12:10:11;;;;;;;12.25;11.65;;;;;;;;;;5034675;28;20025;-70
2023/05/15 12:12:43;;;;;;;13.23;12.52;;;;;;;;;;5040349;28;20021;-69
2023/05/15 12:15:13;;;;;;;13.13;12.50;;;;;;;;;;5038319;28;20013;-69
2023/05/15 12:17:39;;;;;;;12.30;11.70;;;;;;;;;;5032260;28;20014;-71
2023/05/15 12:20:07;;;;;;;12.10;11.50;;;;;;;;;;5039206;28;20543;-69
2023/05/15 12:22:40;;;;;;;12.43;11.82;;;;;;;;;;5033589;28;20116;-71
2023/05/15 12:25:06;;;;;;;12.15;11.55;;;;;;;;;;5044399;28;20021;-70
2023/05/15 12:27:32;;;;;;;12.90;12.30;;;;;;;;;;5039076;28;20078;-70
2023/05/15 12:29:58;;;;;;;12.65;12.05;;;;;;;;;;5031837;28;20103;-70
2023/05/15 12:32:25;;;;;;;12.38;11.77;;;;;;;;;;5031457;28;20014;-69
2023/05/15 12:34:50;;;;;;;12.32;11.73;;;;;;;;;;5032507;28;20479;-69
2023/05/15 12:37:19;;;;;;;12.57;11.98;;;;;;;;;;5033755;28;20021;-70
2023/05/15 12:39:52;;;;;;;12.43;11.82;;;;;;;;;;5044303;28;20539;-70
2023/05/15 12:42:18;;;;;;;13.23;12.60;;;;;;;;;;5038280;28;20025;-69
2023/05/15 12:44:43;;;;;;;12.98;12.38;;;;;;;;;;5038619;28;20032;-69
2023/05/15 12:47:08;;;;;;;12.93;12.32;;;;;;;;;;5030029;28;20112;-70
2023/05/15 12:49:37;;;;;;;13.68;12.98;;;;;;;;;;5023963;28;20018;-69
2023/05/15 12:52:08;;;;;;;12.48;11.88;;;;;;;;;;5029663;28;20021;-70
2023/05/15 12:54:38;;;;;;;13.38;12.68;;;;;;;;;;5021218;28;20095;-69
2023/05/15 12:57:03;;;;;;;12.52;11.93;;;;;;;;;;5044532;28;20018;-69
2023/05/15 12:59:28;;;;;;;12.60;12.00;;;;;;;;;;5048967;28;20043;-69
2023/05/15 13:01:54;;;;;;;12.68;12.07;;;;;;;;;;5032831;28;20046;-69
2023/05/15 13:04:19;;;;;;;13.52;12.82;;;;;;;;;;5033090;28;20041;-70
2023/05/15 13:06:44;;;;;;;12.80;12.20;;;;;;;;;;5032618;28;20098;-69
2023/05/15 13:09:11;;;;;;;16.83;15.82;;;;;;;;;;5029814;28;20635;-67
2023/05/15 13:11:41;;;;;;;14.52;13.73;;;;;;;;;;5019050;28;20021;-63
2023/05/15 13:14:15;;;;;;;15.20;14.40;;;;;;;;;;5025327;28;20101;-65
2023/05/15 13:16:42;;;;;;;14.20;13.50;;;;;;;;;;5026521;28;20083;-64
2023/05/15 13:19:08;;;;;;;14.95;14.15;;;;;;;;;;5027656;28;20029;-63
2023/05/15 13:21:33;;;;;;;14.73;13.93;;;;;;;;;;5022751;28;20033;-64
2023/05/15 13:23:59;;;;;;;14.40;13.60;;;;;;;;;;5026887;28;20029;-65
2023/05/15 13:26:24;;;;;;;14.18;13.48;;;;;;;;;;5030905;28;20392;-66
2023/05/15 13:28:50;;;;;;;13.85;13.15;;;;;;;;;;5029753;28;20017;-64
2023/05/15 13:31:16;;;;;;;14.30;13.52;;;;;;;;;;5030059;28;20022;-64
2023/05/15 13:33:41;;;;;;;14.65;13.85;;;;;;;;;;5027225;28;20088;-65
2023/05/15 13:36:06;;;;;;;14.07;13.38;;;;;;;;;;5029670;28;20033;-64
2023/05/15 13:38:32;;;;;;;13.75;13.05;;;;;;;;;;5031829;28;20346;-65
2023/05/15 13:40:57;;;;;;;14.25;13.50;;;;;;;;;;5031770;28;20024;-66
2023/05/15 13:43:22;;;;;;;14.98;14.18;;;;;;;;;;5025543;28;20017;-64
2023/05/15 13:45:48;;;;;;;14.15;13.40;;;;;;;;;;5028788;28;20029;-63
2023/05/15 13:48:13;;;;;;;14.35;13.55;;;;;;;;;;5023935;28;20029;-65
2023/05/15 13:50:39;;;;;;;15.52;14.63;;;;;;;;;;5022322;28;20091;-65
2023/05/15 13:53:05;;;;;;;15.35;14.48;;;;;;;;;;5022933;28;20036;-64
2023/05/15 13:55:30;;;;;;;13.48;12.77;;;;;;;;;;5024610;28;20033;-64
2023/05/15 13:57:56;;;;;;;14.10;13.35;;;;;;;;;;5024192;28;20460;-64
2023/05/15 14:00:21;;;;;;;12.40;11.80;;;;;;;;;;5025476;28;20182;-64
2023/05/15 14:02:46;;;;;;;14.23;13.48;;;;;;;;;;5023860;28;20136;-63
2023/05/15 14:05:12;;;;;;;14.57;13.77;;;;;;;;;;5026927;28;20036;-63
2023/05/15 14:07:38;;;;;;;13.57;12.88;;;;;;;;;;5026163;28;20025;-64
2023/05/15 14:10:04;;;;;;;14.13;13.40;;;;;;;;;;5022068;28;20184;-63
2023/05/15 14:12:31;;;;;;;13.27;12.57;;;;;;;;;;5026889;28;20021;-64
2023/05/15 14:14:57;;;;;;;14.05;13.35;;;;;;;;;;5026440;28;20416;-63